METAR Data
IDs: Format: Raw Decoded Include TAF

Data at: 1843 UTC 07 Dec 2021

K77S 071835Z AUTO 19007KT 10SM BKN004 BKN048 BKN060 10/10 A3008 RMK A01
K77S 071815Z AUTO 19006KT 8SM OVC004 10/09 A3009 RMK A01
K77S 071755Z AUTO 18006KT 8SM OVC004 10/09 A3008 RMK A01 P0001
K77S 071735Z AUTO 19003KT 10SM OVC004 10/09 A3008 RMK A01
K77S 071715Z AUTO 21005KT 10SM BKN004 OVC039 09/09 A3007 RMK A01
K77S 071655Z AUTO 19004KT 10SM OVC003 09/09 A3007 RMK A01
K77S 071635Z AUTO 00000KT 3/4SM BR OVC003 09/09 A3006 RMK A01
K77S 071615Z AUTO 00000KT 3/4SM BR OVC003 08/08 A3006 RMK A01
K77S 071555Z AUTO 00000KT 1SM BR OVC003 08/08 A3006 RMK A01
K77S 071535Z AUTO 00000KT 1 1/2SM BR OVC003 09/09 A3005 RMK A01
K77S 071515Z AUTO 00000KT 3SM BR 09/09 A3004 RMK A01
K77S 071455Z AUTO 00000KT 3/4SM BR 09/09 A3004 RMK A01
K77S 071435Z AUTO 00000KT 1/4SM FG OVC002 08/08 A3002 RMK A01
K77S 071415Z AUTO 00000KT 1/4SM FG OVC002 08/08 A3002 RMK A01
K77S 071355Z AUTO 00000KT M1/4SM FG OVC002 08/08 A3002 RMK A01
K77S 071335Z AUTO 00000KT 1/4SM FG OVC002 08/08 A3002 RMK A01
K77S 071315Z AUTO 00000KT 1/2SM BR 08/08 A3002 RMK A01
K77S 071255Z AUTO 00000KT 1/4SM FG 08/08 A3002 RMK A01
K77S 071235Z AUTO 00000KT M1/4SM FG OVC002 09/09 A3002 RMK A01
K77S 071215Z AUTO 00000KT 1/4SM FG OVC002 09/08 A3002 RMK A01
K77S 071155Z AUTO 00000KT 1/2SM FG OVC003 08/08 A3002 RMK A01
K77S 071135Z AUTO 00000KT 1/4SM FG OVC003 09/09 A3002 RMK A01
K77S 071115Z AUTO 00000KT 1SM BR OVC003 09/09 A3002 RMK A01
K77S 071055Z AUTO 00000KT 1SM BR OVC003 09/08 A3002 RMK A01
K77S 071035Z AUTO 00000KT 2 1/2SM BR OVC004 09/09 A3001 RMK A01
K77S 071015Z AUTO 00000KT 3SM BR BKN005 BKN030 OVC040 09/09 A3001 RMK A01
K77S 070955Z AUTO 00000KT 4SM BR 09/09 A3001 RMK A01
K77S 070935Z AUTO 00000KT 3SM BR 09/09 A3001 RMK A01
K77S 070735Z AUTO 00000KT 8SM BKN007 OVC026 09/09 A3001 RMK A01
K77S 070715Z AUTO 00000KT 8SM 09/09 A3001 RMK A01
K77S 070655Z AUTO 00000KT 6SM BR OVC007 09/09 A3001 RMK A01 P0001
K77S 070635Z AUTO 00000KT 5SM BR 09/09 A3001 RMK A01
K77S 070615Z AUTO 00000KT 5SM BR OVC007 09/09 A3000 RMK A01
K77S 070555Z AUTO 00000KT 4SM BR OVC007 09/09 A3000 RMK A01 P0002
K77S 070535Z AUTO 00000KT 7SM BKN005 OVC010 09/09 A3000 RMK A01
K77S 070515Z AUTO 00000KT 3SM BR BKN003 BKN007 OVC010 09/09 A3000 RMK A01
K77S 070455Z AUTO 00000KT 2 1/2SM BR SCT002 BKN013 OVC032 09/09 A3000 RMK A01 P0006
K77S 070435Z AUTO 00000KT 2 1/2SM BR BKN014 BKN028 OVC034 09/09 A3000 RMK A01
K77S 070415Z AUTO 00000KT 1 3/4SM BR SCT004 BKN015 OVC033 09/09 A3000 RMK A01
K77S 070355Z AUTO 00000KT 2 1/2SM BR OVC015 09/09 A3000 RMK A01 P0004
K77S 070335Z AUTO 00000KT 2 1/2SM BR 09/09 A3000 RMK A01
K77S 070315Z AUTO 00000KT 2SM BR FEW004 BKN008 OVC011 09/09 A3000 RMK A01
K77S 070255Z AUTO 00000KT 2SM BR 09/09 A3000 RMK A01 P0001
K77S 070235Z AUTO 00000KT 10SM 09/09 A3000 RMK A01
K77S 070215Z AUTO 00000KT 10SM BKN007 OVC029 09/09 A3000 RMK A01
K77S 070155Z AUTO 00000KT 10SM SCT007 OVC028 09/09 A3000 RMK A01
K77S 070135Z AUTO 00000KT 10SM BKN007 OVC028 09/09 A3000 RMK A01
K77S 070115Z AUTO 00000KT 10SM SCT007 SCT011 OVC029 09/09 A3000 RMK A01
K77S 070055Z AUTO 00000KT 6SM BR BKN011 OVC028 09/09 A3000 RMK A01 P0004
K77S 070035Z AUTO 00000KT 6SM BR SCT011 OVC028 09/09 A3001 RMK A01
K77S 070015Z AUTO 18004KT 6SM BR SCT006 BKN011 OVC028 09/09 A3001 RMK A01
K77S 062355Z AUTO 00000KT 7SM SCT006 BKN019 OVC031 09/09 A3001 RMK A01 P0012
K77S 062335Z AUTO 00000KT 3SM BR FEW006 BKN018 OVC032 08/08 A3003 RMK A01
K77S 062315Z AUTO 00000KT 4SM BR FEW003 BKN033 OVC039 08/08 A3003 RMK A01
K77S 062255Z AUTO 00000KT 2 1/2SM BR SCT003 BKN032 OVC039 08/08 A3004 RMK A01 P0017
K77S 062235Z AUTO 17003KT 3SM BR SCT004 SCT013 OVC029 09/09 A3006 RMK A01
K77S 062215Z AUTO 34003KT 2SM BR BKN006 BKN013 OVC027 09/09 A3006 RMK A01
K77S 062155Z AUTO 00000KT 2SM BR BKN006 OVC027 09/08 A3006 RMK A01 P0023
K77S 062135Z AUTO 35003KT 2 1/2SM BR FEW007 FEW021 BKN027 08/08 A3005 RMK A01 VIS 1 3/4V3
K77S 062115Z AUTO 00000KT 1 3/4SM BR SCT009 SCT015 OVC024 08/08 A3004 RMK A01
K77S 062055Z AUTO 04003KT 1 3/4SM BR BKN024 BKN029 OVC034 08/08 A3005 RMK A01 P0015
K77S 062035Z AUTO 00000KT 4SM BR BKN034 BKN046 BKN065 08/08 A3006 RMK A01
K77S 062015Z AUTO 00000KT 4SM BR FEW010 FEW028 OVC034 08/08 A3007 RMK A01
K77S 061955Z AUTO 00000KT 2SM BR FEW003 SCT013 BKN027 08/08 A3009 RMK A01 P0010
K77S 061935Z AUTO 00000KT 2 1/2SM BR FEW003 SCT025 OVC033 08/08 A3011 RMK A01
K77S 061915Z AUTO 00000KT 2SM BR FEW005 SCT024 OVC032 08/08 A3012 RMK A01
K77S 061855Z AUTO 00000KT 3SM BR FEW006 BKN030 OVC034 08/08 A3012 RMK A01 P0009
K77S 061835Z AUTO 00000KT 2SM BR FEW021 OVC031 08/08 A3013 RMK A01
K77S 061815Z AUTO 00000KT 8SM OVC031 08/08 A3013 RMK A01
K77S 061755Z AUTO 00000KT 8SM BKN031 BKN050 08/07 A3013 RMK A01 P0001
K77S 061735Z AUTO 00000KT 8SM SCT035 SCT041 BKN090 07/07 A3015 RMK A01
K77S 061715Z AUTO 00000KT 4SM BR BKN037 BKN043 BKN050 07/07 A3015 RMK A01
K77S 061655Z AUTO 16005KT 4SM BR BKN044 BKN050 07/07 A3015 RMK A01 P0003
K77S 061635Z AUTO 00000KT 5SM BR OVC047 07/07 A3017 RMK A01
K77S 061615Z AUTO 00000KT 6SM BR OVC050 07/06 A3015 RMK A01
K77S 061555Z AUTO 12003KT 8SM OVC050 07/07 A3014 RMK A01 P0001
K77S 061535Z AUTO 00000KT 9SM OVC055 07/07 A3015 RMK A01
K77S 061515Z AUTO 35003KT 6SM BR OVC055 06/06 A3016 RMK A01
K77S 061455Z AUTO 01004KT 5SM BR OVC065 06/06 A3015 RMK A01 P0001
K77S 061435Z AUTO 34003KT 5SM BR OVC060 06/06 A3015 RMK A01
K77S 061415Z AUTO 00000KT 5SM BR OVC060 05/05 A3017 RMK A01
K77S 061355Z AUTO 00000KT 8SM OVC060 05/05 A3019 RMK A01 P0001
K77S 061335Z AUTO 00000KT 8SM OVC060 05/05 A3022 RMK A01
K77S 061315Z AUTO 00000KT 9SM FEW038 SCT045 OVC065 05/05 A3023 RMK A01
K77S 061255Z AUTO 00000KT 7SM 05/05 A3024 RMK A01 P0002
K77S 061235Z AUTO 00000KT 7SM 05/05 A3025 RMK A01
K77S 061215Z AUTO 00000KT 5SM BR 05/05 A3027 RMK A01
K77S 061155Z AUTO 00000KT 10SM 05/05 A3026 RMK A01
K77S 061135Z AUTO 00000KT 10SM 05/05 A3027 RMK A01
K77S 061115Z AUTO 05004KT 9SM 05/04 A3027 RMK A01
K77S 061055Z AUTO VRB03KT 9SM OVC011 06/05 A3029 RMK A01
K77S 061035Z AUTO 22003KT 7SM BKN013 BKN042 OVC070 06/05 A3030 RMK A01
K77S 061015Z AUTO 30005KT 10SM 05/05 A3028 RMK A01
K77S 060955Z AUTO VRB04KT 9SM 05/05 A3025 RMK A01
K77S 060935Z AUTO 14003KT 7SM SCT011 SCT049 OVC070 05/05 A3024 RMK A01
K77S 060915Z AUTO 29004KT 6SM BR SCT011 SCT048 OVC070 05/05 A3027 RMK A01
K77S 060855Z AUTO 08005KT 05/04 A3026 RMK A01
K77S 060835Z AUTO 00000KT 8SM BKN012 OVC075 05/04 A3029 RMK A01
K77S 060815Z AUTO 00000KT 6SM BR SCT013 OVC100 05/04 A3030 RMK A01
K77S 060755Z AUTO 00000KT 6SM BR SCT008 BKN012 OVC100 05/04 A3031 RMK A01
K77S 060735Z AUTO 18003KT 6SM BR 05/04 A3030 RMK A01
K77S 060715Z AUTO 00000KT 7SM 05/04 A3033 RMK A01
K77S 060655Z AUTO 00000KT 6SM BR 05/04 A3034 RMK A01